createdAt,value
2017-07-24T00:00:08.079Z,0
2017-07-24T00:01:23.006Z,0
2017-07-24T00:02:08.140Z,0
2017-07-24T00:03:23.032Z,0
2017-07-24T00:04:08.195Z,0
2017-07-24T00:05:08.569Z,0
2017-07-24T00:06:08.540Z,0
2017-07-24T00:07:08.247Z,0
2017-07-24T00:08:08.591Z,0
2017-07-24T00:09:08.293Z,0
2017-07-24T00:10:08.319Z,0
2017-07-24T00:11:23.244Z,0
2017-07-24T00:12:08.677Z,0
2017-07-24T00:13:08.705Z,0
2017-07-24T00:14:23.329Z,0
2017-07-24T00:15:08.142Z,0
2017-07-24T00:16:08.481Z,0
2017-07-24T00:17:08.480Z,0
2017-07-24T00:18:08.508Z,0
2017-07-24T00:19:08.861Z,0
2017-07-24T00:20:23.156Z,0
2017-07-24T00:21:08.603Z,0
2017-07-24T00:22:23.533Z,0
2017-07-24T00:23:08.961Z,0
2017-07-24T00:24:08.960Z,0
2017-07-24T00:25:09.037Z,0
2017-07-24T00:26:23.619Z,0
2017-07-24T00:27:23.652Z,0
2017-07-24T00:28:09.084Z,0
2017-07-24T00:30:23.704Z,0
2017-07-24T00:31:08.831Z,0
2017-07-24T00:32:09.177Z,0
2017-07-24T00:33:09.168Z,0
2017-07-24T00:34:09.218Z,0
2017-07-24T00:35:09.214Z,0
2017-07-24T00:36:08.955Z,0
2017-07-24T00:37:09.282Z,0
2017-07-24T00:38:09.343Z,0
2017-07-24T00:39:09.337Z,0
2017-07-24T00:40:09.362Z,0
2017-07-24T00:41:09.364Z,0
2017-07-24T00:42:24.002Z,0
2017-07-24T00:43:24.040Z,0
2017-07-24T00:44:09.457Z,0
2017-07-24T00:45:09.493Z,0
2017-07-24T00:46:09.500Z,0
2017-07-24T00:47:09.540Z,0
2017-07-24T00:48:09.549Z,0
2017-07-24T00:49:09.584Z,0
2017-07-24T00:50:09.578Z,0
2017-07-24T00:51:09.336Z,0
2017-07-24T00:52:09.385Z,0
2017-07-24T00:53:09.658Z,0
2017-07-24T00:54:09.680Z,0
2017-07-24T00:55:09.091Z,0
2017-07-24T00:56:09.771Z,0
2017-07-24T00:57:09.779Z,0
2017-07-24T00:58:38.996Z,0
2017-07-24T00:59:24.421Z,0
2017-07-24T01:00:09.849Z,0
2017-07-24T01:01:09.568Z,0
2017-07-24T01:02:24.502Z,0
2017-07-24T01:03:24.484Z,0
2017-07-24T01:04:09.949Z,0
2017-07-24T01:05:09.946Z,0
2017-07-24T01:06:09.991Z,0
2017-07-24T01:07:24.609Z,0
2017-07-24T01:08:10.047Z,0
2017-07-24T01:09:24.672Z,0
2017-07-24T01:10:09.778Z,0
2017-07-24T01:11:24.734Z,0
2017-07-24T01:12:10.127Z,0
2017-07-24T01:13:24.749Z,0
2017-07-24T01:14:24.467Z,0
2017-07-24T01:15:24.816Z,0
2017-07-24T01:16:09.937Z,0
2017-07-24T01:17:10.247Z,0
2017-07-24T01:18:10.291Z,0
2017-07-24T01:19:09.995Z,0
2017-07-24T01:20:10.350Z,0
2017-07-24T01:22:10.058Z,0
2017-07-24T01:23:25.020Z,0
2017-07-24T01:24:10.085Z,0
2017-07-24T01:25:10.155Z,0
2017-07-24T01:26:25.061Z,0
2017-07-24T01:27:10.503Z,0
2017-07-24T01:28:10.524Z,0
2017-07-24T01:29:10.227Z,0
2017-07-24T01:30:25.161Z,0
2017-07-24T01:32:09.993Z,0
2017-07-24T01:33:10.646Z,0
2017-07-24T01:34:24.956Z,0
2017-07-24T01:35:10.709Z,0
2017-07-24T01:36:10.745Z,0
2017-07-24T01:37:10.440Z,0
2017-07-24T01:38:10.783Z,0
2017-07-24T01:39:10.790Z,0
2017-07-24T01:40:10.810Z,0
2017-07-24T01:41:10.844Z,0
2017-07-24T01:42:10.850Z,0
2017-07-24T01:43:10.895Z,0
2017-07-24T01:44:10.895Z,0
2017-07-24T01:45:10.938Z,0
2017-07-24T01:46:40.143Z,0
2017-07-24T01:47:10.982Z,0
2017-07-24T01:48:11.006Z,0
2017-07-24T01:49:11.025Z,0
2017-07-24T01:50:10.751Z,0
2017-07-24T01:51:11.061Z,0
2017-07-24T01:52:39.999Z,0
2017-07-24T01:54:11.161Z,0
2017-07-24T01:55:25.766Z,0
2017-07-24T01:56:10.893Z,0
2017-07-24T01:57:11.200Z,0
2017-07-24T01:58:11.278Z,0
2017-07-24T01:59:11.248Z,0
2017-07-24T02:00:11.305Z,0
2017-07-24T02:01:40.259Z,0
2017-07-24T02:02:11.040Z,0
2017-07-24T02:03:11.394Z,0
2017-07-24T02:04:11.369Z,0
2017-07-24T02:05:11.474Z,0
2017-07-24T02:06:11.433Z,0
2017-07-24T02:07:10.853Z,0
2017-07-24T02:08:26.077Z,0
2017-07-24T02:09:11.514Z,0
2017-07-24T02:10:11.531Z,0
2017-07-24T02:11:26.155Z,0
2017-07-24T02:12:11.305Z,0
2017-07-24T02:13:11.662Z,0
2017-07-24T02:14:11.645Z,0
2017-07-24T02:15:11.332Z,0
2017-07-24T02:16:11.378Z,0
2017-07-24T02:17:11.686Z,0
2017-07-24T02:18:11.124Z,0
2017-07-24T02:19:11.726Z,0
2017-07-24T02:20:11.792Z,0
2017-07-24T02:21:26.386Z,0
2017-07-24T02:22:11.827Z,0
2017-07-24T02:23:26.452Z,0
2017-07-24T02:24:11.888Z,0
2017-07-24T02:25:11.890Z,0
2017-07-24T02:26:26.525Z,0
2017-07-24T02:27:26.523Z,0
2017-07-24T02:28:11.949Z,0
2017-07-24T02:29:11.993Z,0
2017-07-24T02:30:11.720Z,0
2017-07-24T02:31:12.064Z,0
2017-07-24T02:32:12.054Z,0
2017-07-24T02:33:26.376Z,0
2017-07-24T02:34:26.765Z,0
2017-07-24T02:35:11.516Z,0
2017-07-24T02:36:12.148Z,0
2017-07-24T02:37:12.195Z,0
2017-07-24T02:38:26.824Z,0
2017-07-24T02:39:11.935Z,0
2017-07-24T02:40:11.960Z,0
2017-07-24T02:41:26.883Z,0
2017-07-24T02:42:11.693Z,0
2017-07-24T02:43:12.007Z,0
2017-07-24T02:44:12.361Z,0
2017-07-24T02:45:12.416Z,0
2017-07-24T02:46:12.100Z,0
2017-07-24T02:47:12.411Z,0
2017-07-24T02:48:12.447Z,0
2017-07-24T02:49:41.663Z,0
2017-07-24T02:50:12.516Z,0
2017-07-24T02:51:12.199Z,0
2017-07-24T02:52:12.561Z,0
2017-07-24T02:53:12.564Z,0
2017-07-24T02:54:27.196Z,0
2017-07-24T02:55:12.667Z,0
2017-07-24T02:56:12.653Z,0
2017-07-24T02:57:12.652Z,0
2017-07-24T02:58:12.676Z,0
2017-07-24T02:59:12.716Z,0
2017-07-24T03:00:12.742Z,0
2017-07-24T03:01:12.771Z,0
2017-07-24T03:03:12.824Z,0
2017-07-24T03:04:12.830Z,0
2017-07-24T03:05:27.140Z,0
2017-07-24T03:06:12.868Z,0
2017-07-24T03:07:12.906Z,0
2017-07-24T03:08:12.638Z,0
2017-07-24T03:09:12.941Z,0
2017-07-24T03:10:12.979Z,0
2017-07-24T03:11:12.994Z,0
2017-07-24T03:12:13.034Z,0
2017-07-24T03:13:13.016Z,0
2017-07-24T03:14:13.077Z,0
2017-07-24T03:15:13.089Z,5
2017-07-24T03:16:13.093Z,5
2017-07-24T03:17:13.155Z,5
2017-07-24T03:18:13.181Z,5
2017-07-24T03:19:13.202Z,5
2017-07-24T03:20:12.897Z,5
2017-07-24T03:21:27.816Z,5
2017-07-24T03:22:13.269Z,5
2017-07-24T03:23:13.276Z,5
2017-07-24T03:24:13.333Z,10
2017-07-24T03:25:13.326Z,10
2017-07-24T03:26:13.375Z,10
2017-07-24T03:27:27.986Z,10
2017-07-24T03:28:28.013Z,10
2017-07-24T03:29:13.116Z,10
2017-07-24T03:31:13.467Z,15
2017-07-24T03:32:27.795Z,15
2017-07-24T03:33:13.504Z,15
2017-07-24T03:34:13.247Z,15
2017-07-24T03:35:13.571Z,15
2017-07-24T03:36:42.806Z,20
2017-07-24T03:37:13.616Z,20
2017-07-24T03:38:27.918Z,20
2017-07-24T03:39:13.361Z,25
2017-07-24T03:40:13.689Z,25
2017-07-24T03:41:13.733Z,25
2017-07-24T03:42:13.136Z,30
2017-07-24T03:43:13.446Z,30
2017-07-24T03:44:13.799Z,30
2017-07-24T03:45:13.527Z,30
2017-07-24T03:46:28.438Z,30
2017-07-24T03:47:13.559Z,30
2017-07-24T03:48:28.466Z,30
2017-07-24T03:49:13.918Z,35
2017-07-24T03:51:13.986Z,35
2017-07-24T03:52:13.366Z,35
2017-07-24T03:53:14.005Z,35
2017-07-24T03:54:14.034Z,35
2017-07-24T03:55:13.743Z,35
2017-07-24T03:56:28.678Z,35
2017-07-24T03:57:14.103Z,40
2017-07-24T03:58:13.825Z,45
2017-07-24T03:59:14.135Z,45
2017-07-24T04:00:14.190Z,50
2017-07-24T04:01:13.873Z,50
2017-07-24T04:02:14.228Z,55
2017-07-24T04:03:14.239Z,55
2017-07-24T04:04:14.296Z,60
2017-07-24T04:05:14.305Z,60
2017-07-24T04:06:14.330Z,60
2017-07-24T04:07:14.340Z,65
2017-07-24T04:08:43.573Z,70
2017-07-24T04:09:14.370Z,70
2017-07-24T04:10:29.037Z,75
2017-07-24T04:11:14.405Z,75
2017-07-24T04:12:14.467Z,75
2017-07-24T04:13:14.495Z,80
2017-07-24T04:14:14.519Z,80
2017-07-24T04:15:14.548Z,85
2017-07-24T04:16:29.134Z,90
2017-07-24T04:17:14.585Z,95
2017-07-24T04:18:14.267Z,95
2017-07-24T04:19:29.244Z,105
2017-07-24T04:20:14.645Z,105
2017-07-24T04:21:14.685Z,105
2017-07-24T04:22:14.725Z,110
2017-07-24T04:23:14.737Z,110
2017-07-24T04:24:29.339Z,115
2017-07-24T04:25:14.768Z,125
2017-07-24T04:26:14.822Z,120
2017-07-24T04:27:14.829Z,120
2017-07-24T04:28:14.863Z,120
2017-07-24T04:29:14.874Z,120
2017-07-24T04:30:14.609Z,135
2017-07-24T04:31:14.601Z,140
2017-07-24T04:32:14.642Z,140
2017-07-24T04:33:14.949Z,145
2017-07-24T04:34:14.687Z,150
2017-07-24T04:35:14.999Z,145
2017-07-24T04:36:15.035Z,155
2017-07-24T04:37:29.676Z,160
2017-07-24T04:38:15.106Z,165
2017-07-24T04:39:15.110Z,165
2017-07-24T04:40:29.749Z,175
2017-07-24T04:41:15.164Z,185
2017-07-24T04:42:29.157Z,195
2017-07-24T04:43:15.195Z,215
2017-07-24T04:44:14.948Z,230
2017-07-24T04:45:15.271Z,215
2017-07-24T04:47:14.692Z,215
2017-07-24T04:48:15.010Z,230
2017-07-24T04:49:29.663Z,280
2017-07-24T04:50:15.394Z,340
2017-07-24T04:51:15.119Z,690
2017-07-24T04:53:15.451Z,925
2017-07-24T04:54:29.786Z,800
2017-07-24T04:55:29.488Z,410
2017-07-24T04:56:30.132Z,575
2017-07-24T04:57:15.559Z,350
2017-07-24T04:58:29.874Z,330
2017-07-24T04:59:15.321Z,310
2017-07-24T05:00:15.316Z,420
2017-07-24T05:01:15.364Z,580
2017-07-24T05:02:15.704Z,660
2017-07-24T05:03:15.400Z,675
2017-07-24T05:05:15.460Z,395
2017-07-24T05:06:15.797Z,500
2017-07-24T05:07:15.819Z,520
2017-07-24T05:08:30.455Z,570
2017-07-24T05:09:30.189Z,370
2017-07-24T05:10:15.914Z,305
2017-07-24T05:11:30.562Z,385
2017-07-24T05:12:15.342Z,340
2017-07-24T05:13:30.589Z,330
2017-07-24T05:14:15.722Z,425
2017-07-24T05:15:16.046Z,265
2017-07-24T05:16:30.665Z,470
2017-07-24T05:17:16.131Z,395
2017-07-24T05:18:16.127Z,355
2017-07-24T05:19:15.555Z,380
2017-07-24T05:20:15.917Z,485
2017-07-24T05:21:15.907Z,745
2017-07-24T05:22:16.246Z,635
2017-07-24T05:23:30.852Z,675
2017-07-24T05:24:16.298Z,650
2017-07-24T05:25:16.024Z,680
2017-07-24T05:26:30.971Z,630
2017-07-24T05:27:16.360Z,695
2017-07-24T05:28:16.112Z,545
2017-07-24T05:29:31.017Z,355
2017-07-24T05:30:16.477Z,435
2017-07-24T05:31:16.491Z,440
2017-07-24T05:32:16.514Z,435
2017-07-24T05:33:15.925Z,370
2017-07-24T05:34:16.292Z,270
2017-07-24T05:35:31.213Z,245
2017-07-24T05:36:16.338Z,260
2017-07-24T05:37:16.680Z,280
2017-07-24T05:38:16.715Z,335
2017-07-24T05:39:16.405Z,340
2017-07-24T05:40:16.134Z,300
2017-07-24T05:41:16.759Z,290
2017-07-24T05:42:16.519Z,320
2017-07-24T05:43:46.053Z,350
2017-07-24T05:44:16.858Z,325
2017-07-24T05:45:31.508Z,275
2017-07-24T05:46:31.516Z,265
2017-07-24T05:47:16.637Z,255
2017-07-24T05:48:17.010Z,230
2017-07-24T05:49:16.097Z,225
2017-07-24T05:50:17.056Z,230
2017-07-24T05:51:17.050Z,235
2017-07-24T05:52:17.115Z,250
2017-07-24T05:53:31.706Z,255
2017-07-24T05:54:17.168Z,265
2017-07-24T05:55:17.159Z,300
2017-07-24T05:56:17.218Z,295
2017-07-24T05:58:17.265Z,295
2017-07-24T06:00:17.347Z,330
2017-07-24T06:01:17.336Z,330
2017-07-24T06:02:17.388Z,410
2017-07-24T06:03:17.395Z,420
2017-07-24T06:04:17.435Z,515
2017-07-24T06:05:17.463Z,520
2017-07-24T06:06:17.184Z,530
2017-07-24T06:07:17.520Z,620
2017-07-24T06:09:17.238Z,665
2017-07-24T06:10:17.586Z,715
2017-07-24T06:11:17.635Z,805
2017-07-24T06:12:17.638Z,930
2017-07-24T06:13:17.693Z,910
2017-07-24T06:14:17.704Z,820
2017-07-24T06:15:31.728Z,695
2017-07-24T06:16:17.772Z,605
2017-07-24T06:17:17.791Z,525
2017-07-24T06:19:17.857Z,500
2017-07-24T06:20:32.195Z,490
2017-07-24T06:21:17.920Z,440
2017-07-24T06:22:17.957Z,500
2017-07-24T06:23:17.674Z,535
2017-07-24T06:24:18.004Z,535
2017-07-24T06:25:18.047Z,520
2017-07-24T06:26:32.672Z,470
2017-07-24T06:27:18.096Z,480
2017-07-24T06:28:18.150Z,490
2017-07-24T06:29:18.162Z,570
2017-07-24T06:30:18.201Z,640
2017-07-24T06:31:32.815Z,505
2017-07-24T06:32:18.263Z,540
2017-07-24T06:33:32.861Z,555
2017-07-24T06:34:18.005Z,545
2017-07-24T06:35:18.027Z,510
2017-07-24T06:36:18.386Z,485
2017-07-24T06:37:18.103Z,485
2017-07-24T06:38:18.433Z,495
2017-07-24T06:39:17.850Z,445
2017-07-24T06:40:17.569Z,455
2017-07-24T06:41:18.538Z,505
2017-07-24T06:42:18.251Z,510
2017-07-24T06:43:18.610Z,490
2017-07-24T06:44:32.902Z,505
2017-07-24T06:45:32.642Z,480
2017-07-24T06:46:33.267Z,520
2017-07-24T06:47:18.691Z,530
2017-07-24T06:48:18.759Z,650
2017-07-24T06:49:18.771Z,665
2017-07-24T06:50:18.809Z,710
2017-07-24T06:51:33.121Z,680
2017-07-24T06:52:18.863Z,600
2017-07-24T06:53:18.603Z,640
2017-07-24T06:54:18.618Z,605
2017-07-24T06:55:33.558Z,640
2017-07-24T06:56:18.675Z,575
2017-07-24T06:57:19.022Z,525
2017-07-24T06:58:19.066Z,535
2017-07-24T06:59:19.069Z,595
2017-07-24T07:00:19.138Z,575
2017-07-24T07:01:19.137Z,635
2017-07-24T07:02:19.219Z,655
2017-07-24T07:03:18.870Z,630
2017-07-24T07:05:19.323Z,605
2017-07-24T07:06:19.015Z,650
2017-07-24T07:07:33.962Z,665
2017-07-24T07:08:19.355Z,720
2017-07-24T07:09:19.402Z,725
2017-07-24T07:10:19.463Z,710
2017-07-24T07:11:19.175Z,615
2017-07-24T07:12:33.476Z,525
2017-07-24T07:13:33.834Z,515
2017-07-24T07:14:19.588Z,515
2017-07-24T07:15:34.202Z,500
2017-07-24T07:16:19.846Z,525
2017-07-24T07:17:34.266Z,540
2017-07-24T07:18:34.314Z,550
2017-07-24T07:19:34.025Z,570
2017-07-24T07:20:19.770Z,555
2017-07-24T07:21:19.174Z,605
2017-07-24T07:22:34.136Z,640
2017-07-24T07:23:19.235Z,725
2017-07-24T07:24:19.908Z,775
2017-07-24T07:25:34.533Z,955
2017-07-24T07:26:19.689Z,1065
2017-07-24T07:27:19.685Z,1180
2017-07-24T07:28:20.046Z,1005
2017-07-24T07:29:19.462Z,915
2017-07-24T07:30:20.113Z,775
2017-07-24T07:31:20.159Z,820
2017-07-24T07:32:19.858Z,825
2017-07-24T07:33:19.919Z,805
2017-07-24T07:34:34.529Z,830
2017-07-24T07:35:20.285Z,830
2017-07-24T07:36:19.997Z,925
2017-07-24T07:37:20.082Z,965
2017-07-24T07:38:20.388Z,1000
2017-07-24T07:39:20.428Z,1025
2017-07-24T07:40:20.450Z,1010
2017-07-24T07:41:20.477Z,990
2017-07-24T07:42:20.218Z,1045
2017-07-24T07:43:20.550Z,1050
2017-07-24T07:44:35.182Z,990
2017-07-24T07:45:20.650Z,960
2017-07-24T07:46:20.336Z,960
2017-07-24T07:47:20.707Z,925
2017-07-24T07:48:20.113Z,910
2017-07-24T07:49:34.454Z,905
2017-07-24T07:50:35.412Z,860
2017-07-24T07:51:20.807Z,835
2017-07-24T07:52:20.910Z,775
2017-07-24T07:53:20.613Z,690
2017-07-24T07:55:20.671Z,825
2017-07-24T07:56:35.622Z,870
2017-07-24T07:57:20.729Z,855
2017-07-24T07:58:20.776Z,830
2017-07-24T07:59:20.820Z,910
2017-07-24T08:00:21.165Z,960
2017-07-24T08:01:20.911Z,940
2017-07-24T08:02:20.612Z,715
2017-07-24T08:03:20.970Z,810
2017-07-24T08:04:20.680Z,750
2017-07-24T08:05:35.937Z,855
2017-07-24T08:06:35.969Z,800
2017-07-24T08:07:21.413Z,780
2017-07-24T08:08:36.063Z,785
2017-07-24T08:09:21.179Z,780
2017-07-24T08:10:21.537Z,760
2017-07-24T08:11:21.256Z,710
2017-07-24T08:12:21.639Z,700
2017-07-24T08:13:21.640Z,710
2017-07-24T08:14:21.342Z,750
2017-07-24T08:15:21.390Z,750
2017-07-24T08:16:21.725Z,745
2017-07-24T08:17:21.483Z,740
2017-07-24T08:18:21.537Z,730
2017-07-24T08:19:21.843Z,715
2017-07-24T08:20:21.554Z,695
2017-07-24T08:22:21.965Z,680
2017-07-24T08:23:21.981Z,685
2017-07-24T08:25:22.066Z,640
2017-07-24T08:26:22.114Z,635
2017-07-24T08:27:51.352Z,620
2017-07-24T08:29:21.602Z,600
2017-07-24T08:30:21.617Z,595
2017-07-24T08:31:21.374Z,565
2017-07-24T08:32:36.647Z,520
2017-07-24T08:33:22.348Z,510
2017-07-24T08:34:22.091Z,520
2017-07-24T08:35:36.713Z,490
2017-07-24T08:36:22.162Z,460
2017-07-24T08:37:22.208Z,445
2017-07-24T08:38:22.232Z,485
2017-07-24T08:39:37.170Z,505
2017-07-24T08:40:22.622Z,490
2017-07-24T08:41:22.354Z,500
2017-07-24T08:43:37.338Z,490
2017-07-24T08:44:22.157Z,485
2017-07-24T08:45:22.779Z,485
2017-07-24T08:46:37.136Z,470
2017-07-24T08:47:22.576Z,460
2017-07-24T08:48:22.608Z,470
2017-07-24T08:49:22.654Z,470
2017-07-24T08:50:22.369Z,410
2017-07-24T08:51:22.399Z,440
2017-07-24T08:52:23.055Z,455
2017-07-24T08:53:37.702Z,465
2017-07-24T08:54:23.148Z,455
2017-07-24T08:55:23.148Z,460
2017-07-24T08:56:37.804Z,475
2017-07-24T08:57:23.240Z,465
2017-07-24T08:58:23.282Z,465
2017-07-24T08:59:23.327Z,465
2017-07-24T09:00:23.338Z,460
2017-07-24T09:01:23.381Z,455
2017-07-24T09:03:37.445Z,440
2017-07-24T09:04:23.176Z,445
2017-07-24T09:05:38.165Z,455
2017-07-24T09:06:22.937Z,470
2017-07-24T09:07:23.603Z,460
2017-07-24T09:08:23.337Z,425
2017-07-24T09:10:23.090Z,455
2017-07-24T09:11:23.145Z,430
2017-07-24T09:12:23.774Z,420
2017-07-24T09:13:23.526Z,435
2017-07-24T09:14:23.564Z,430
2017-07-24T09:15:23.584Z,420
2017-07-24T09:17:38.549Z,405
2017-07-24T09:18:23.704Z,395
2017-07-24T09:19:23.709Z,390
2017-07-24T09:20:23.768Z,380
2017-07-24T09:21:24.097Z,380
2017-07-24T09:22:23.843Z,370
2017-07-24T09:23:23.869Z,355
2017-07-24T09:24:23.595Z,355
2017-07-24T09:25:38.542Z,345
2017-07-24T09:26:38.555Z,370
2017-07-24T09:27:24.013Z,365
2017-07-24T09:28:23.722Z,335
2017-07-24T09:29:39.013Z,330
2017-07-24T09:30:24.427Z,325
2017-07-24T09:31:24.491Z,315
2017-07-24T09:32:24.184Z,310
2017-07-24T09:33:38.842Z,330
2017-07-24T09:34:23.940Z,330
2017-07-24T09:35:24.618Z,310
2017-07-24T09:36:38.612Z,315
2017-07-24T09:37:24.366Z,285
2017-07-24T09:38:24.711Z,310
2017-07-24T09:39:24.131Z,320
2017-07-24T09:40:24.479Z,310
2017-07-24T09:41:39.110Z,310
2017-07-24T09:42:39.138Z,315
2017-07-24T09:43:39.172Z,305
2017-07-24T09:44:24.931Z,325
2017-07-24T09:45:25.285Z,350
2017-07-24T09:46:24.388Z,355
2017-07-24T09:47:25.013Z,350
2017-07-24T09:48:24.754Z,340
2017-07-24T09:49:39.685Z,305
2017-07-24T09:50:25.100Z,310
2017-07-24T09:51:25.180Z,315
2017-07-24T09:52:25.188Z,310
2017-07-24T09:53:24.938Z,310
2017-07-24T09:54:25.281Z,315
2017-07-24T09:55:24.883Z,320
2017-07-24T09:56:39.911Z,315
2017-07-24T09:57:39.652Z,320
2017-07-24T09:58:24.775Z,310
2017-07-24T09:59:39.709Z,300
2017-07-24T10:00:25.464Z,300
2017-07-24T10:01:25.191Z,300
2017-07-24T10:03:25.583Z,300
2017-07-24T10:04:24.984Z,305
2017-07-24T10:05:25.634Z,310
2017-07-24T10:06:25.654Z,315
2017-07-24T10:09:25.456Z,320
2017-07-24T10:10:25.822Z,315
2017-07-24T10:11:25.861Z,315
2017-07-24T10:12:25.862Z,305
2017-07-24T10:13:25.288Z,300
2017-07-24T10:14:25.299Z,290
2017-07-24T10:15:40.590Z,305
2017-07-24T10:17:25.735Z,330
2017-07-24T10:18:26.066Z,355
2017-07-24T10:19:26.118Z,370
2017-07-24T10:20:40.724Z,380
2017-07-24T10:21:25.850Z,380
2017-07-24T10:22:25.892Z,390
2017-07-24T10:23:25.933Z,370
2017-07-24T10:24:25.984Z,365
2017-07-24T10:25:25.989Z,355
2017-07-24T10:26:26.028Z,345
2017-07-24T10:27:26.383Z,340
2017-07-24T10:28:55.608Z,335
2017-07-24T10:29:26.443Z,330
2017-07-24T10:30:28.626Z,320
2017-07-24T10:31:26.481Z,310
2017-07-24T10:32:26.548Z,305
2017-07-24T10:33:26.556Z,300
2017-07-24T10:34:26.616Z,300
2017-07-24T10:35:26.626Z,290
2017-07-24T10:36:26.676Z,275
2017-07-24T10:37:26.697Z,280
2017-07-24T10:38:26.747Z,285
2017-07-24T10:39:26.765Z,295
2017-07-24T10:40:26.820Z,295
2017-07-24T10:41:26.857Z,290
2017-07-24T10:42:26.862Z,290
2017-07-24T10:43:26.887Z,290
2017-07-24T10:44:56.134Z,295
2017-07-24T10:45:26.988Z,295
2017-07-24T10:46:26.995Z,300
2017-07-24T10:47:26.737Z,300
2017-07-24T10:48:26.755Z,310
2017-07-24T10:49:26.516Z,315
2017-07-24T10:50:26.831Z,315
2017-07-24T10:51:26.862Z,310
2017-07-24T10:52:26.884Z,310
2017-07-24T10:53:27.256Z,315
2017-07-24T10:54:41.857Z,310
2017-07-24T10:55:26.693Z,305
2017-07-24T10:56:27.020Z,300
2017-07-24T10:57:41.968Z,295
2017-07-24T10:58:27.401Z,290
2017-07-24T10:59:27.454Z,280
2017-07-24T11:01:27.500Z,285
2017-07-24T11:02:27.537Z,295
2017-07-24T11:03:27.263Z,305
2017-07-24T11:04:27.293Z,310
2017-07-24T11:05:42.231Z,300
2017-07-24T11:06:27.378Z,295
2017-07-24T11:07:27.681Z,300
2017-07-24T11:08:27.726Z,310
2017-07-24T11:09:27.758Z,320
2017-07-24T11:10:42.405Z,270
2017-07-24T11:11:42.424Z,265
2017-07-24T11:12:27.848Z,265
2017-07-24T11:13:27.589Z,260
2017-07-24T11:14:27.604Z,260
2017-07-24T11:15:27.633Z,260
2017-07-24T11:16:42.577Z,280
2017-07-24T11:17:28.045Z,280
2017-07-24T11:18:28.051Z,265
2017-07-24T11:19:28.075Z,255
2017-07-24T11:20:27.806Z,270
2017-07-24T11:21:28.159Z,260
2017-07-24T11:22:28.174Z,260
2017-07-24T11:23:42.811Z,270
2017-07-24T11:24:42.510Z,265
2017-07-24T11:25:28.270Z,265
2017-07-24T11:26:28.311Z,260
2017-07-24T11:27:27.736Z,260
2017-07-24T11:28:28.067Z,265
2017-07-24T11:29:28.144Z,270
2017-07-24T11:30:27.819Z,270
2017-07-24T11:31:57.672Z,280
2017-07-24T11:32:28.515Z,280
2017-07-24T11:33:28.211Z,290
2017-07-24T11:34:28.791Z,280
2017-07-24T11:35:28.580Z,285
2017-07-24T11:36:27.710Z,285
2017-07-24T11:37:28.650Z,280
2017-07-24T11:38:28.679Z,285
2017-07-24T11:39:28.705Z,275
2017-07-24T11:40:28.764Z,275
2017-07-24T11:41:28.799Z,275
2017-07-24T11:42:28.199Z,270
2017-07-24T11:43:43.464Z,275
2017-07-24T11:44:28.867Z,275
2017-07-24T11:46:28.944Z,275
2017-07-24T11:47:28.985Z,275
2017-07-24T11:48:28.997Z,270
2017-07-24T11:49:28.719Z,265
2017-07-24T11:50:43.676Z,265
2017-07-24T11:51:29.113Z,260
2017-07-24T11:52:29.166Z,260
2017-07-24T11:53:29.182Z,260
2017-07-24T11:55:29.215Z,260
2017-07-24T11:56:28.938Z,260
2017-07-24T11:57:43.601Z,260
2017-07-24T11:58:29.353Z,265
2017-07-24T12:00:28.770Z,260
2017-07-24T12:01:29.106Z,260
2017-07-24T12:02:29.457Z,260
2017-07-24T12:03:43.775Z,255
2017-07-24T12:04:29.522Z,255
2017-07-24T12:05:29.551Z,250
2017-07-24T12:06:29.574Z,250
2017-07-24T12:07:29.294Z,250
2017-07-24T12:08:29.609Z,260
2017-07-24T12:09:29.693Z,260
2017-07-24T12:10:29.391Z,260
2017-07-24T12:11:29.746Z,265
2017-07-24T12:12:44.358Z,265
2017-07-24T12:13:29.787Z,265
2017-07-24T12:14:29.818Z,255
2017-07-24T12:16:29.895Z,250
2017-07-24T12:17:29.301Z,250
2017-07-24T12:18:29.940Z,250
2017-07-24T12:19:44.606Z,250
2017-07-24T12:20:30.005Z,250
2017-07-24T12:21:30.068Z,250
2017-07-24T12:22:30.073Z,250
2017-07-24T12:23:29.825Z,250
2017-07-24T12:24:30.135Z,245
2017-07-24T12:25:29.548Z,245
2017-07-24T12:26:44.808Z,245
2017-07-24T12:27:29.923Z,250
2017-07-24T12:28:30.254Z,250
2017-07-24T12:29:44.594Z,250
2017-07-24T12:30:44.916Z,245
2017-07-24T12:31:30.367Z,245
2017-07-24T12:32:30.401Z,250
2017-07-24T12:33:30.420Z,250
2017-07-24T12:34:30.141Z,250
2017-07-24T12:35:44.759Z,250
2017-07-24T12:36:30.530Z,250
2017-07-24T12:37:59.437Z,250
2017-07-24T12:38:44.564Z,250
2017-07-24T12:39:30.620Z,255
2017-07-24T12:41:30.669Z,255
2017-07-24T12:42:30.703Z,260
2017-07-24T12:43:45.325Z,260
2017-07-24T12:44:30.477Z,255
2017-07-24T12:45:45.391Z,255
2017-07-24T12:46:30.511Z,255
2017-07-24T12:47:30.867Z,260
2017-07-24T12:48:30.590Z,265
2017-07-24T12:49:30.951Z,270
2017-07-24T12:50:30.637Z,275
2017-07-24T12:52:00.198Z,265
2017-07-24T12:52:45.611Z,255
2017-07-24T12:53:31.023Z,255
2017-07-24T12:54:31.077Z,255
2017-07-24T12:55:31.098Z,260
2017-07-24T12:56:31.152Z,255
2017-07-24T12:57:31.155Z,265
2017-07-24T12:58:31.210Z,260
2017-07-24T12:59:31.211Z,255
2017-07-24T13:00:31.289Z,250
2017-07-24T13:01:30.667Z,250
2017-07-24T13:02:31.028Z,245
2017-07-24T13:03:31.058Z,245
2017-07-24T13:04:31.110Z,250
2017-07-24T13:05:31.108Z,250
2017-07-24T13:06:46.053Z,245
2017-07-24T13:07:31.169Z,245
2017-07-24T13:08:31.518Z,250
2017-07-24T13:09:31.542Z,250
2017-07-24T13:10:31.577Z,255
2017-07-24T13:11:31.305Z,255
2017-07-24T13:12:31.345Z,255
2017-07-24T13:13:31.342Z,255
2017-07-24T13:14:31.725Z,255
2017-07-24T13:15:31.714Z,250
2017-07-24T13:16:46.373Z,250
2017-07-24T13:17:46.397Z,245
2017-07-24T13:18:31.836Z,240
2017-07-24T13:19:31.872Z,230
2017-07-24T13:20:31.875Z,225
2017-07-24T13:21:31.924Z,230
2017-07-24T13:22:31.622Z,235
2017-07-24T13:24:31.998Z,240
2017-07-24T13:25:32.045Z,235
2017-07-24T13:26:46.698Z,230
2017-07-24T13:27:32.102Z,230
2017-07-24T13:28:46.766Z,230
2017-07-24T13:29:31.846Z,230
2017-07-24T13:30:46.786Z,230
2017-07-24T13:31:32.232Z,230
2017-07-24T13:32:32.273Z,230
2017-07-24T13:33:31.993Z,220
2017-07-24T13:34:32.326Z,220
2017-07-24T13:35:46.965Z,225
2017-07-24T13:36:32.380Z,220
2017-07-24T13:37:31.783Z,215
2017-07-24T13:38:46.752Z,215
2017-07-24T13:39:32.146Z,215
2017-07-24T13:40:47.102Z,230
2017-07-24T13:41:31.922Z,225
2017-07-24T13:42:47.162Z,215
2017-07-24T13:43:32.298Z,210
2017-07-24T13:44:32.622Z,215
2017-07-24T13:45:32.688Z,205
2017-07-24T13:46:32.678Z,200
2017-07-24T13:47:32.416Z,195
2017-07-24T13:48:32.744Z,195
2017-07-24T13:49:47.388Z,195
2017-07-24T13:50:32.828Z,195
2017-07-24T13:52:32.876Z,200
2017-07-24T13:54:47.524Z,200
2017-07-24T13:55:32.966Z,200
2017-07-24T13:56:32.995Z,195
2017-07-24T13:57:33.051Z,195
2017-07-24T13:58:32.728Z,215
2017-07-24T13:59:32.769Z,205
2017-07-24T14:00:33.117Z,200
2017-07-24T14:01:47.444Z,195
2017-07-24T14:02:32.856Z,190
2017-07-24T14:03:47.830Z,180
2017-07-24T14:04:33.231Z,175
2017-07-24T14:05:32.980Z,170
2017-07-24T14:06:32.989Z,170
2017-07-24T14:07:33.348Z,170
2017-07-24T14:08:33.039Z,175
2017-07-24T14:09:47.750Z,185
2017-07-24T14:10:48.010Z,185
2017-07-24T14:11:33.145Z,185
2017-07-24T14:12:33.475Z,190
2017-07-24T14:14:33.244Z,195
2017-07-24T14:15:33.591Z,200
2017-07-24T14:16:48.219Z,195
2017-07-24T14:17:33.313Z,195
2017-07-24T14:18:33.655Z,200
2017-07-24T14:19:47.671Z,195
2017-07-24T14:20:33.426Z,195
2017-07-24T14:21:33.465Z,195
2017-07-24T14:23:33.843Z,190
2017-07-24T14:24:48.125Z,190
2017-07-24T14:25:48.469Z,185
2017-07-24T14:26:48.518Z,180
2017-07-24T14:29:48.596Z,180
2017-07-24T14:31:33.764Z,175
2017-07-24T14:32:34.087Z,175
2017-07-24T14:33:33.803Z,175
2017-07-24T14:34:33.845Z,175
2017-07-24T14:35:33.853Z,175
2017-07-24T14:38:34.267Z,180
2017-07-24T14:39:34.306Z,180
2017-07-24T14:40:34.298Z,180
2017-07-24T14:41:48.965Z,175
2017-07-24T14:42:49.004Z,175
2017-07-24T14:43:49.022Z,175
2017-07-24T14:44:34.453Z,175